createdAt,value
2023-01-25T00:01:51.230Z,4.40
2023-01-25T00:04:26.468Z,4.40
2023-01-25T00:07:00.477Z,4.40
2023-01-25T00:09:33.891Z,4.40
2023-01-25T00:12:07.880Z,4.40
2023-01-25T00:14:41.640Z,4.40
2023-01-25T00:17:15.171Z,4.30
2023-01-25T00:19:50.371Z,4.30
2023-01-25T00:22:24.026Z,4.40
2023-01-25T00:24:58.199Z,4.40
2023-01-25T00:27:32.053Z,4.40
2023-01-25T00:30:07.406Z,4.40
2023-01-25T00:32:54.614Z,4.40
2023-01-25T00:35:32.519Z,4.40
2023-01-25T00:38:29.335Z,4.40
2023-01-25T00:41:04.251Z,4.40
2023-01-25T00:43:38.098Z,4.40
2023-01-25T00:46:16.009Z,4.30
2023-01-25T00:48:49.856Z,4.30
2023-01-25T00:51:26.234Z,4.30
2023-01-25T00:53:59.912Z,4.30
2023-01-25T00:56:33.622Z,4.30
2023-01-25T00:59:08.058Z,4.30
2023-01-25T01:01:43.231Z,4.30
2023-01-25T01:04:16.909Z,4.20
2023-01-25T01:06:52.739Z,4.20
2023-01-25T01:09:27.007Z,4.30
2023-01-25T01:12:00.467Z,4.20
2023-01-25T01:14:34.161Z,4.30
2023-01-25T01:17:08.132Z,4.20
2023-01-25T01:19:41.496Z,4.10
2023-01-25T01:22:16.391Z,4.10
2023-01-25T01:24:50.534Z,4.10
2023-01-25T01:27:25.306Z,4.10
2023-01-25T01:29:58.669Z,4.10
2023-01-25T01:32:32.804Z,4.10
2023-01-25T01:35:09.470Z,4.10
2023-01-25T01:37:45.580Z,4.00
2023-01-25T01:40:19.637Z,4.00
2023-01-25T01:43:02.630Z,4.00
2023-01-25T01:45:58.793Z,4.00
2023-01-25T01:48:39.206Z,4.00
2023-01-25T01:51:20.754Z,4.00
2023-01-25T01:54:01.879Z,4.00
2023-01-25T01:56:44.449Z,3.90
2023-01-25T01:59:20.696Z,3.90
2023-01-25T02:01:55.507Z,3.90
2023-01-25T02:04:30.995Z,3.90
2023-01-25T02:07:13.509Z,4.10
2023-01-25T02:09:49.889Z,3.90
2023-01-25T02:12:25.302Z,3.90
2023-01-25T02:14:59.123Z,3.90
2023-01-25T02:17:36.703Z,3.90
2023-01-25T02:20:20.762Z,3.90
2023-01-25T02:23:03.130Z,4.00
2023-01-25T02:25:40.376Z,4.00
2023-01-25T02:28:22.222Z,4.00
2023-01-25T02:30:55.959Z,4.00
2023-01-25T02:33:30.056Z,4.00
2023-01-25T02:36:22.043Z,4.00
2023-01-25T02:39:01.116Z,4.00
2023-01-25T02:41:39.032Z,4.00
2023-01-25T02:44:17.522Z,4.00
2023-01-25T02:46:52.532Z,4.00
2023-01-25T02:49:26.243Z,4.00
2023-01-25T02:52:00.185Z,4.00
2023-01-25T02:54:35.510Z,4.00
2023-01-25T02:57:10.542Z,4.00
2023-01-25T02:59:44.118Z,4.00
2023-01-25T03:02:17.595Z,4.00
2023-01-25T03:04:51.225Z,3.90
2023-01-25T03:07:24.826Z,3.90
2023-01-25T03:09:58.523Z,3.90
2023-01-25T03:12:33.674Z,3.90
2023-01-25T03:15:09.748Z,3.90
2023-01-25T03:17:43.754Z,3.90
2023-01-25T03:20:18.454Z,3.90
2023-01-25T03:22:52.278Z,3.90
2023-01-25T03:25:26.303Z,3.90
2023-01-25T03:28:00.992Z,3.90
2023-01-25T03:30:34.400Z,3.90
2023-01-25T03:33:08.878Z,3.90
2023-01-25T03:35:43.079Z,3.80
2023-01-25T03:38:16.823Z,3.80
2023-01-25T03:40:51.003Z,3.80
2023-01-25T03:43:26.624Z,3.70
2023-01-25T03:46:02.720Z,3.70
2023-01-25T03:48:36.447Z,3.70
2023-01-25T03:51:11.227Z,3.70
2023-01-25T03:53:46.180Z,3.70
2023-01-25T03:56:20.729Z,3.70
2023-01-25T03:58:55.897Z,3.70
2023-01-25T04:01:32.099Z,3.70
2023-01-25T04:04:05.861Z,3.70
2023-01-25T04:06:39.615Z,3.70
2023-01-25T04:09:14.521Z,3.70
2023-01-25T04:11:51.182Z,3.80
2023-01-25T04:14:43.381Z,3.80
2023-01-25T04:17:17.519Z,3.80
2023-01-25T04:19:51.156Z,3.80
2023-01-25T04:22:26.271Z,3.80
2023-01-25T04:24:59.622Z,3.80
2023-01-25T04:27:33.087Z,3.90
2023-01-25T04:30:12.018Z,3.90
2023-01-25T04:32:45.603Z,3.90
2023-01-25T04:35:20.823Z,3.90
2023-01-25T04:37:59.252Z,3.80
2023-01-25T04:40:33.310Z,3.80
2023-01-25T04:43:07.922Z,3.80
2023-01-25T04:45:43.285Z,3.80
2023-01-25T04:48:17.133Z,3.80
2023-01-25T04:50:50.761Z,3.70
2023-01-25T04:53:24.459Z,3.70
2023-01-25T04:55:58.109Z,3.70
2023-01-25T04:58:31.897Z,3.70
2023-01-25T05:01:07.689Z,3.70
2023-01-25T05:03:41.611Z,3.70
2023-01-25T05:06:14.983Z,3.70
2023-01-25T05:08:48.405Z,3.70
2023-01-25T05:11:22.302Z,3.70
2023-01-25T05:13:56.117Z,3.70
2023-01-25T05:16:32.354Z,3.70
2023-01-25T05:19:05.721Z,3.70
2023-01-25T05:21:57.204Z,3.70
2023-01-25T05:24:35.151Z,3.70
2023-01-25T05:27:09.607Z,3.70
2023-01-25T05:29:46.517Z,3.70
2023-01-25T05:32:24.556Z,3.70
2023-01-25T05:35:00.701Z,3.70
2023-01-25T05:37:34.250Z,3.60
2023-01-25T05:40:10.079Z,3.60
2023-01-25T05:42:43.593Z,3.60
2023-01-25T05:45:17.243Z,3.60
2023-01-25T05:47:55.973Z,3.60
2023-01-25T05:50:29.660Z,3.60
2023-01-25T05:53:03.571Z,3.50
2023-01-25T05:55:38.168Z,3.50
2023-01-25T05:58:11.674Z,3.50
2023-01-25T06:00:45.493Z,3.50
2023-01-25T06:03:20.358Z,3.50
2023-01-25T06:05:57.289Z,3.50
2023-01-25T06:08:31.771Z,3.50
2023-01-25T06:11:09.199Z,3.60
2023-01-25T06:13:49.089Z,3.60
2023-01-25T06:16:22.590Z,3.60
2023-01-25T06:18:57.574Z,3.60
2023-01-25T06:21:31.433Z,3.60
2023-01-25T06:24:05.244Z,3.50
2023-01-25T06:26:39.352Z,3.50
2023-01-25T06:29:13.222Z,3.40
2023-01-25T06:31:47.094Z,3.40
2023-01-25T06:34:22.787Z,3.40
2023-01-25T06:36:56.535Z,3.40
2023-01-25T06:39:30.094Z,3.40
2023-01-25T06:42:03.791Z,3.40
2023-01-25T06:44:37.254Z,3.40
2023-01-25T06:47:12.689Z,3.40
2023-01-25T06:49:47.648Z,3.50
2023-01-25T06:52:22.411Z,3.50
2023-01-25T06:54:55.823Z,3.50
2023-01-25T06:57:30.062Z,3.50
2023-01-25T07:00:04.152Z,3.50
2023-01-25T07:02:39.646Z,3.50
2023-01-25T07:05:14.765Z,3.50
2023-01-25T07:07:49.287Z,3.50
2023-01-25T07:10:24.117Z,3.50
2023-01-25T07:12:57.619Z,3.60
2023-01-25T07:15:30.971Z,3.60
2023-01-25T07:18:15.663Z,3.80
2023-01-25T07:20:52.506Z,3.60
2023-01-25T07:23:28.194Z,3.60
2023-01-25T07:26:02.929Z,3.60
2023-01-25T07:28:36.544Z,3.60
2023-01-25T07:31:10.819Z,3.50
2023-01-25T07:33:44.736Z,3.50
2023-01-25T07:36:20.699Z,3.50
2023-01-25T07:38:57.485Z,3.50
2023-01-25T07:41:32.515Z,3.50
2023-01-25T07:44:07.237Z,3.60
2023-01-25T07:46:41.043Z,3.60
2023-01-25T07:49:16.987Z,3.60
2023-01-25T07:51:52.223Z,3.60
2023-01-25T07:54:25.774Z,3.60
2023-01-25T07:56:59.232Z,3.60
2023-01-25T07:59:32.815Z,3.60
2023-01-25T08:02:06.467Z,3.60
2023-01-25T08:04:42.520Z,3.60
2023-01-25T08:07:20.458Z,3.70
2023-01-25T08:09:53.998Z,3.60
2023-01-25T08:12:28.851Z,3.60
2023-01-25T08:15:02.603Z,3.60
2023-01-25T08:17:36.436Z,3.60
2023-01-25T08:20:12.967Z,3.60
2023-01-25T08:22:48.384Z,3.60
2023-01-25T08:25:22.195Z,3.60
2023-01-25T08:27:56.390Z,3.60
2023-01-25T08:30:29.809Z,3.60
2023-01-25T08:33:03.792Z,3.60
2023-01-25T08:35:37.421Z,3.60
2023-01-25T08:38:12.779Z,3.70
2023-01-25T08:40:47.797Z,3.60
2023-01-25T08:43:21.340Z,3.60
2023-01-25T08:45:58.868Z,3.60
2023-01-25T08:48:32.675Z,3.70
2023-01-25T08:51:09.089Z,3.60
2023-01-25T08:53:44.875Z,3.60
2023-01-25T08:56:19.903Z,3.60
2023-01-25T08:58:53.440Z,3.60
2023-01-25T09:01:27.083Z,3.60
2023-01-25T09:04:02.029Z,3.50
2023-01-25T09:06:36.236Z,3.50
2023-01-25T09:09:13.314Z,3.50
2023-01-25T09:11:46.871Z,3.50
2023-01-25T09:14:20.248Z,3.50
2023-01-25T09:16:53.726Z,3.50
2023-01-25T09:19:27.391Z,3.50
2023-01-25T09:22:02.158Z,3.70
2023-01-25T09:24:37.433Z,3.50
2023-01-25T09:27:11.335Z,3.50
2023-01-25T09:29:59.918Z,3.50
2023-01-25T09:32:36.304Z,3.50
2023-01-25T09:35:10.096Z,3.40
2023-01-25T09:37:43.397Z,3.40
2023-01-25T09:40:25.123Z,3.40
2023-01-25T09:43:05.573Z,3.40
2023-01-25T09:45:39.031Z,3.40
2023-01-25T09:48:27.416Z,3.30
2023-01-25T09:51:18.309Z,3.30
2023-01-25T09:53:54.939Z,3.30
2023-01-25T09:56:37.412Z,3.50
2023-01-25T09:59:18.663Z,3.30
2023-01-25T10:01:57.063Z,3.30
2023-01-25T10:04:37.420Z,3.30
2023-01-25T10:07:25.723Z,3.30
2023-01-25T10:10:07.798Z,3.40
2023-01-25T10:12:43.117Z,3.00
2023-01-25T10:15:22.763Z,3.30
2023-01-25T10:18:06.866Z,3.40
2023-01-25T10:20:49.104Z,3.40
2023-01-25T10:23:42.089Z,3.40
2023-01-25T10:26:27.654Z,3.40
2023-01-25T10:29:13.832Z,3.40
2023-01-25T10:31:52.674Z,3.40
2023-01-25T10:34:35.454Z,3.40
2023-01-25T10:37:18.233Z,3.40
2023-01-25T10:40:05.725Z,3.60
2023-01-25T10:42:47.996Z,3.40
2023-01-25T10:45:23.792Z,3.50
2023-01-25T10:48:04.168Z,3.50
2023-01-25T10:50:47.507Z,3.50
2023-01-25T10:53:32.011Z,3.50
2023-01-25T10:56:23.823Z,3.50
2023-01-25T10:59:16.805Z,3.50
2023-01-25T11:01:53.705Z,3.50
2023-01-25T11:04:35.134Z,3.50
2023-01-25T11:07:31.214Z,3.50
2023-01-25T11:10:12.083Z,3.50
2023-01-25T11:12:46.169Z,3.50
2023-01-25T11:15:27.010Z,3.60
2023-01-25T11:18:14.977Z,3.50
2023-01-25T11:20:50.702Z,3.60
2023-01-25T11:23:28.014Z,3.60
2023-01-25T11:26:15.725Z,3.60
2023-01-25T11:28:49.737Z,3.60
2023-01-25T11:31:25.382Z,3.60
2023-01-25T11:34:00.308Z,3.70
2023-01-25T11:36:45.457Z,3.60
2023-01-25T11:39:39.092Z,3.60
2023-01-25T11:42:33.583Z,3.60
2023-01-25T11:46:01.816Z,3.60
2023-01-25T11:49:20.722Z,3.60
2023-01-25T11:52:06.825Z,3.50
2023-01-25T11:54:56.487Z,3.80
2023-01-25T11:57:54.497Z,3.50
2023-01-25T12:00:50.423Z,3.60
2023-01-25T12:04:21.086Z,3.50
2023-01-25T12:07:17.359Z,3.50
2023-01-25T12:10:10.823Z,3.50
2023-01-25T12:12:53.984Z,3.50
2023-01-25T12:16:03.372Z,3.50
2023-01-25T12:19:20.395Z,3.50
2023-01-25T12:22:23.324Z,3.50
2023-01-25T12:25:09.020Z,3.50
2023-01-25T12:28:04.035Z,3.50
2023-01-25T12:30:52.545Z,3.50
2023-01-25T12:33:35.785Z,3.50
2023-01-25T12:36:19.144Z,3.50
2023-01-25T12:39:01.335Z,3.50
2023-01-25T12:41:42.585Z,3.50
2023-01-25T12:44:22.735Z,3.60
2023-01-25T12:47:06.718Z,3.60
2023-01-25T12:49:49.460Z,3.60
2023-01-25T12:52:31.071Z,3.70
2023-01-25T12:55:09.511Z,3.60
2023-01-25T12:57:55.605Z,3.60
2023-01-25T13:00:38.173Z,3.70
2023-01-25T13:03:30.521Z,3.70
2023-01-25T13:06:19.796Z,3.70
2023-01-25T13:09:05.731Z,3.70
2023-01-25T13:11:43.864Z,3.70
2023-01-25T13:14:32.899Z,3.70
2023-01-25T13:17:23.216Z,3.70
2023-01-25T13:19:57.367Z,3.70
2023-01-25T13:22:59.010Z,3.90
2023-01-25T13:25:32.876Z,3.70
2023-01-25T13:28:46.547Z,3.60
2023-01-25T13:31:53.606Z,3.60
2023-01-25T13:34:58.957Z,3.60
2023-01-25T13:37:36.106Z,3.60
2023-01-25T13:40:33.459Z,3.60
2023-01-25T13:43:20.522Z,3.60
2023-01-25T13:45:55.814Z,3.60
2023-01-25T13:48:45.847Z,3.60
2023-01-25T13:51:21.304Z,3.60
2023-01-25T13:54:00.451Z,3.60
2023-01-25T13:56:37.521Z,3.60
2023-01-25T13:59:26.890Z,3.60
2023-01-25T14:02:03.305Z,3.60
2023-01-25T14:04:37.036Z,3.60
2023-01-25T14:07:19.064Z,3.60
2023-01-25T14:09:54.192Z,3.60
2023-01-25T14:12:40.437Z,3.60
2023-01-25T14:15:23.579Z,3.60
2023-01-25T14:18:18.153Z,3.60
2023-01-25T14:20:53.721Z,3.60
2023-01-25T14:23:30.478Z,3.60
2023-01-25T14:26:04.191Z,3.60
2023-01-25T14:28:39.041Z,3.70
2023-01-25T14:31:25.117Z,3.60
2023-01-25T14:34:02.918Z,3.60
2023-01-25T14:36:36.275Z,3.60
2023-01-25T14:39:26.468Z,3.60
2023-01-25T14:42:01.951Z,3.60
2023-01-25T14:44:36.056Z,3.60
2023-01-25T14:47:30.064Z,3.60
2023-01-25T14:50:35.422Z,3.60
2023-01-25T14:53:19.007Z,3.60
2023-01-25T14:55:53.664Z,3.60
2023-01-25T14:58:31.624Z,3.60
2023-01-25T15:01:06.520Z,3.60
2023-01-25T15:03:45.968Z,3.50
2023-01-25T15:06:21.035Z,3.50
2023-01-25T15:08:54.941Z,3.50
2023-01-25T15:11:38.915Z,3.50
2023-01-25T15:14:20.068Z,3.50
2023-01-25T15:16:55.902Z,3.50
2023-01-25T15:19:34.440Z,3.50
2023-01-25T15:22:10.796Z,3.50
2023-01-25T15:24:50.226Z,3.50
2023-01-25T15:27:27.444Z,3.60
2023-01-25T15:30:01.266Z,3.60
2023-01-25T15:32:34.801Z,3.60
2023-01-25T15:35:15.491Z,3.60
2023-01-25T15:37:50.841Z,3.60
2023-01-25T15:40:24.335Z,3.60
2023-01-25T15:42:58.092Z,3.60
2023-01-25T15:45:32.382Z,3.60
2023-01-25T15:48:06.480Z,3.60
2023-01-25T15:50:40.012Z,3.60
2023-01-25T15:53:17.439Z,3.60
2023-01-25T15:55:55.660Z,3.60
2023-01-25T15:58:34.400Z,3.60
2023-01-25T16:01:09.095Z,3.50
2023-01-25T16:03:42.920Z,3.50
2023-01-25T16:06:42.061Z,3.50
2023-01-25T16:09:21.951Z,3.50
2023-01-25T16:11:58.287Z,3.50
2023-01-25T16:14:32.142Z,3.50
2023-01-25T16:17:06.217Z,3.50
2023-01-25T16:19:39.840Z,3.70
2023-01-25T16:22:13.691Z,3.60
2023-01-25T16:24:48.839Z,3.50
2023-01-25T16:27:25.620Z,3.50
2023-01-25T16:30:00.739Z,3.40
2023-01-25T16:32:34.429Z,3.40
2023-01-25T16:35:10.675Z,3.40
2023-01-25T16:37:44.737Z,3.40
2023-01-25T16:40:39.002Z,3.40
2023-01-25T16:43:13.020Z,3.40
2023-01-25T16:45:46.804Z,3.50
2023-01-25T16:48:21.280Z,3.40
2023-01-25T16:50:58.626Z,3.40
2023-01-25T16:53:32.536Z,3.40
2023-01-25T16:56:07.818Z,3.40
2023-01-25T16:58:42.828Z,3.40
2023-01-25T17:01:19.073Z,3.40
2023-01-25T17:03:53.667Z,3.40
2023-01-25T17:06:29.696Z,3.30
2023-01-25T17:09:21.675Z,3.30
2023-01-25T17:11:58.042Z,3.30
2023-01-25T17:14:31.893Z,3.30
2023-01-25T17:17:05.608Z,3.30
2023-01-25T17:19:39.372Z,3.30
2023-01-25T17:22:13.597Z,3.30
2023-01-25T17:24:47.493Z,3.30
2023-01-25T17:27:23.284Z,3.30
2023-01-25T17:29:57.035Z,3.30
2023-01-25T17:32:31.472Z,3.30
2023-01-25T17:35:05.840Z,3.30
2023-01-25T17:37:41.238Z,3.20
2023-01-25T17:40:15.197Z,3.20
2023-01-25T17:42:50.275Z,3.20
2023-01-25T17:45:24.242Z,3.20
2023-01-25T17:47:57.699Z,3.20
2023-01-25T17:50:32.653Z,3.20
2023-01-25T17:53:07.724Z,3.20
2023-01-25T17:55:41.288Z,3.20
2023-01-25T17:58:16.530Z,3.10
2023-01-25T18:00:52.468Z,3.10
2023-01-25T18:03:27.178Z,3.30
2023-01-25T18:06:08.190Z,3.10
2023-01-25T18:08:43.668Z,3.00
2023-01-25T18:11:21.483Z,3.00
2023-01-25T18:13:59.203Z,3.00
2023-01-25T18:16:34.539Z,3.00
2023-01-25T18:19:09.325Z,3.00
2023-01-25T18:21:43.839Z,3.00
2023-01-25T18:24:28.660Z,3.00
2023-01-25T18:27:08.041Z,3.00
2023-01-25T18:29:53.766Z,3.00
2023-01-25T18:32:28.097Z,3.10
2023-01-25T18:35:01.418Z,3.10
2023-01-25T18:37:43.821Z,3.20
2023-01-25T18:40:18.852Z,3.10
2023-01-25T18:42:53.165Z,3.10
2023-01-25T18:45:28.557Z,3.10
2023-01-25T18:48:05.950Z,3.10
2023-01-25T18:50:42.168Z,3.10
2023-01-25T18:53:17.897Z,3.10
2023-01-25T18:56:01.392Z,3.10
2023-01-25T18:58:38.655Z,3.20
2023-01-25T19:01:16.828Z,3.10
2023-01-25T19:03:52.620Z,3.10
2023-01-25T19:06:26.604Z,3.10
2023-01-25T19:09:01.691Z,3.30
2023-01-25T19:11:35.260Z,3.20
2023-01-25T19:14:10.056Z,3.10
2023-01-25T19:16:45.004Z,3.20
2023-01-25T19:19:21.113Z,3.10
2023-01-25T19:21:55.026Z,3.10
2023-01-25T19:24:28.987Z,3.10
2023-01-25T19:27:02.758Z,3.20
2023-01-25T19:29:36.820Z,3.10
2023-01-25T19:32:12.058Z,3.10
2023-01-25T19:34:45.685Z,3.10
2023-01-25T19:37:19.447Z,3.10
2023-01-25T19:39:53.350Z,3.10
2023-01-25T19:42:26.956Z,3.20
2023-01-25T19:45:03.305Z,3.20
2023-01-25T19:47:38.290Z,3.20
2023-01-25T19:50:13.721Z,3.20
2023-01-25T19:52:47.738Z,3.20
2023-01-25T19:55:21.528Z,3.20
2023-01-25T19:57:54.871Z,3.20
2023-01-25T20:00:28.604Z,3.20
2023-01-25T20:03:15.606Z,3.20
2023-01-25T20:05:59.217Z,3.20
2023-01-25T20:08:34.327Z,3.20
2023-01-25T20:11:11.328Z,3.20
2023-01-25T20:13:45.620Z,3.20
2023-01-25T20:16:20.037Z,3.20
2023-01-25T20:18:57.127Z,3.20
2023-01-25T20:21:33.865Z,3.20
2023-01-25T20:24:11.124Z,3.20
2023-01-25T20:26:45.249Z,3.20
2023-01-25T20:29:20.156Z,3.20
2023-01-25T20:31:54.327Z,3.10
2023-01-25T20:34:29.552Z,3.10
2023-01-25T20:37:03.080Z,3.10
2023-01-25T20:39:36.704Z,3.10
2023-01-25T20:42:10.725Z,3.10
2023-01-25T20:44:43.981Z,3.10
2023-01-25T20:47:17.558Z,3.00
2023-01-25T20:49:52.237Z,3.30
2023-01-25T20:52:25.669Z,3.00
2023-01-25T20:54:59.250Z,3.00
2023-01-25T20:57:32.726Z,3.00
2023-01-25T21:00:09.797Z,3.00
2023-01-25T21:02:43.153Z,3.00
2023-01-25T21:05:18.929Z,3.00
2023-01-25T21:07:53.028Z,3.10
2023-01-25T21:10:27.212Z,2.90
2023-01-25T21:13:00.997Z,2.90
2023-01-25T21:15:34.637Z,2.90
2023-01-25T21:18:08.140Z,3.10
2023-01-25T21:20:43.652Z,2.90
2023-01-25T21:23:17.400Z,2.90
2023-01-25T21:25:53.340Z,3.00
2023-01-25T21:28:27.122Z,2.90
2023-01-25T21:31:08.980Z,2.90
2023-01-25T21:33:46.554Z,3.00
2023-01-25T21:36:22.005Z,3.00
2023-01-25T21:38:58.453Z,3.00
2023-01-25T21:41:34.583Z,3.00
2023-01-25T21:44:25.795Z,3.00
2023-01-25T21:50:10.530Z,3.00
2023-01-25T21:52:46.063Z,3.20
2023-01-25T21:55:19.856Z,2.90
2023-01-25T21:57:53.787Z,2.90
2023-01-25T22:00:27.629Z,3.00
2023-01-25T22:03:01.313Z,2.90
2023-01-25T22:05:34.781Z,2.90
2023-01-25T22:08:09.915Z,2.90
2023-01-25T22:10:43.364Z,2.90
2023-01-25T22:13:17.570Z,2.90
2023-01-25T22:15:51.301Z,2.90
2023-01-25T22:18:25.087Z,2.90
2023-01-25T22:20:59.679Z,2.90
2023-01-25T22:23:36.005Z,2.90
2023-01-25T22:26:13.461Z,2.90
2023-01-25T22:28:49.828Z,2.80
2023-01-25T22:31:25.640Z,3.00
2023-01-25T22:34:00.881Z,2.80
2023-01-25T22:36:34.589Z,2.80
2023-01-25T22:39:13.922Z,2.80
2023-01-25T22:41:47.677Z,2.80
2023-01-25T22:44:22.053Z,2.80
2023-01-25T22:46:55.856Z,2.80
2023-01-25T22:49:29.588Z,2.90
2023-01-25T22:52:03.063Z,2.80
2023-01-25T22:54:38.188Z,2.80
2023-01-25T22:57:11.889Z,2.90
2023-01-25T22:59:45.515Z,2.80
2023-01-25T23:02:18.987Z,2.80
2023-01-25T23:04:52.728Z,2.80
2023-01-25T23:07:26.274Z,2.80
2023-01-25T23:10:01.330Z,2.80
2023-01-25T23:12:35.115Z,2.70
2023-01-25T23:15:15.670Z,2.70
2023-01-25T23:18:06.281Z,2.70
2023-01-25T23:20:40.329Z,2.70
2023-01-25T23:23:14.915Z,2.70
2023-01-25T23:25:49.842Z,2.70
2023-01-25T23:28:23.667Z,2.70
2023-01-25T23:31:17.500Z,2.90
2023-01-25T23:33:55.481Z,2.90
2023-01-25T23:36:32.179Z,2.60
2023-01-25T23:39:06.778Z,2.60
2023-01-25T23:41:42.281Z,2.70
2023-01-25T23:44:15.891Z,2.60
2023-01-25T23:46:50.145Z,2.60
2023-01-25T23:49:25.002Z,2.60
2023-01-25T23:51:58.634Z,2.70
2023-01-25T23:54:32.529Z,2.70
2023-01-25T23:57:07.520Z,2.70
2023-01-25T23:59:41.364Z,2.60
